Time;durP1;ratioP1;P1;durP2;ratioP2;P2;SDS_P1;SDS_P2;PMS_P1;PMS_P2;Temp;Humidity;BMP_temperature;BMP_pressure;BME280_temperature;BME280_humidity;BME280_pressure;Samples;Min_cycle;Max_cycle;Signal;HPM_P1;HPM_P2
2023/01/31 00:01:36;;;;;;;3.95;1.83;;;;;;;4.38;59.42;99363.63;5267762;27;20060;-85
2023/01/31 00:04:06;;;;;;;3.80;2.15;;;;;;;4.31;59.41;99355.13;5267692;27;20066;-86
2023/01/31 00:06:35;;;;;;;3.53;2.20;;;;;;;4.16;59.41;99360.47;5286120;27;20059;-87
2023/01/31 00:09:01;;;;;;;4.82;2.10;;;;;;;4.14;59.41;99353.63;5268373;27;20413;-87
2023/01/31 00:11:28;;;;;;;3.22;1.67;;;;;;;4.23;59.42;99359.50;5268168;27;20075;-86
2023/01/31 00:13:53;;;;;;;3.58;1.90;;;;;;;4.34;59.42;99351.66;5267687;27;20341;-86
2023/01/31 00:16:19;;;;;;;2.30;1.85;;;;;;;4.43;59.43;99355.81;5267777;27;20097;-84
2023/01/31 00:18:45;;;;;;;3.03;1.55;;;;;;;4.34;59.42;99361.97;5285848;27;20057;-86
2023/01/31 00:21:11;;;;;;;4.53;2.08;;;;;;;4.35;59.43;99350.78;5268045;27;20056;-86
2023/01/31 00:23:37;;;;;;;4.30;1.80;;;;;;;4.30;59.42;99357.72;5285669;27;20056;-85
2023/01/31 00:26:10;;;;;;;3.25;1.50;;;;;;;4.39;59.42;99362.75;5267769;27;20109;-86
2023/01/31 00:28:36;;;;;;;2.50;1.30;;;;;;;4.52;59.43;99366.88;5267654;27;20134;-87
2023/01/31 00:31:01;;;;;;;2.47;1.45;;;;;;;4.54;59.43;99382.31;5267590;27;20146;-86
2023/01/31 00:33:27;;;;;;;4.05;1.65;;;;;;;4.44;59.43;99381.56;5267631;27;20093;-86
2023/01/31 00:35:52;;;;;;;3.00;1.33;;;;;;;4.57;59.44;99375.41;5267370;27;20111;-86
2023/01/31 00:38:18;;;;;;;2.62;1.55;;;;;;;4.63;59.43;99385.63;5285781;27;20142;-86
2023/01/31 00:40:51;;;;;;;3.40;1.80;;;;;;;4.82;59.45;99391.37;5267556;27;20109;-86
2023/01/31 00:43:16;;;;;;;4.68;1.20;;;;;;;4.78;59.44;99376.81;5286134;27;20438;-86
2023/01/31 00:45:41;;;;;;;3.92;1.45;;;;;;;4.75;59.45;99373.44;5267895;27;20143;-86
2023/01/31 00:48:07;;;;;;;2.28;1.12;;;;;;;4.79;59.45;99375.94;5267400;27;20116;-86
2023/01/31 00:50:35;;;;;;;2.47;1.23;;;;;;;5.02;59.46;99377.34;5266191;27;20065;-87
2023/01/31 00:53:01;;;;;;;3.33;1.52;;;;;;;4.88;59.45;99372.38;5266051;27;20457;-86
2023/01/31 00:55:26;;;;;;;3.15;1.40;;;;;;;5.01;59.47;99381.63;5266512;27;20095;-85
2023/01/31 00:57:54;;;;;;;2.58;1.05;;;;;;;5.02;59.46;99370.44;5266491;27;20416;-86
2023/01/31 01:00:20;;;;;;;2.20;1.30;;;;;;;5.04;59.46;99366.09;5267070;27;20091;-86
2023/01/31 01:02:45;;;;;;;5.87;1.35;;;;;;;5.04;59.46;99360.09;5266632;27;20465;-87
2023/01/31 01:05:11;;;;;;;3.12;1.50;;;;;;;4.90;59.45;99350.84;5284484;27;20076;-86
2023/01/31 01:07:38;;;;;;;3.47;1.35;;;;;;;4.86;59.45;99379.28;5266146;27;20143;-87
2023/01/31 01:10:04;;;;;;;3.58;1.48;;;;;;;4.85;59.45;99385.31;5284782;27;20082;-86
2023/01/31 01:12:30;;;;;;;1.17;0.82;;;;;;;4.83;59.45;99379.31;5266024;27;20100;-86
2023/01/31 01:14:55;;;;;;;3.37;1.50;;;;;;;4.79;59.45;99375.09;5266505;27;20048;-86
2023/01/31 01:17:21;;;;;;;1.50;1.12;;;;;;;4.73;59.45;99370.00;5284501;27;20088;-86
2023/01/31 01:19:49;;;;;;;3.28;0.95;;;;;;;4.66;59.44;99379.56;5284762;27;20116;-86
2023/01/31 01:22:15;;;;;;;1.98;1.08;;;;;;;4.75;59.44;99360.56;5266816;27;20150;-87
2023/01/31 01:24:44;;;;;;;2.45;1.12;;;;;;;4.82;59.45;99365.59;5284716;27;20068;-86
2023/01/31 01:27:09;;;;;;;3.08;1.20;;;;;;;4.78;59.44;99366.50;5266873;27;20091;-86
2023/01/31 01:29:35;;;;;;;3.87;1.37;;;;;;;4.74;59.45;99348.53;5284685;27;20402;-87
2023/01/31 01:32:00;;;;;;;4.15;1.17;;;;;;;4.73;59.45;99377.75;5266714;27;20052;-85
2023/01/31 01:34:26;;;;;;;3.25;1.45;;;;;;;4.72;59.43;99383.78;5266785;27;20048;-87
2023/01/31 01:36:51;;;;;;;3.10;0.90;;;;;;;4.72;59.44;99376.87;5266712;27;20104;-87
2023/01/31 01:39:17;;;;;;;2.37;0.80;;;;;;;4.71;59.44;99385.50;5284648;27;20073;-86
2023/01/31 01:41:42;;;;;;;3.25;0.80;;;;;;;4.70;59.44;99383.78;5266104;27;20447;-87
2023/01/31 01:45:02;;;;;;;2.20;1.00;;;;;;;4.68;59.44;99400.16;5266519;27;20056;-87
2023/01/31 01:47:39;;;;;;;5.18;0.90;;;;;;;4.79;59.45;99403.47;5194049;27;20062;-87
2023/01/31 01:50:07;;;;;;;3.83;0.88;;;;;;;4.73;59.44;99411.25;5281618;27;188855;-86
2023/01/31 01:52:43;;;;;;;3.78;1.10;;;;;;;4.83;59.44;99412.84;5303928;27;20066;-86
2023/01/31 01:55:17;;;;;;;2.67;1.20;;;;;;;4.85;59.44;99413.69;5268752;27;20048;-87
2023/01/31 01:57:43;;;;;;;3.67;1.17;;;;;;;4.87;59.45;99419.66;5268578;27;20079;-87
2023/01/31 02:00:14;;;;;;;3.35;1.20;;;;;;;4.84;59.44;99401.66;5268134;27;20060;-87
2023/01/31 02:02:41;;;;;;;3.08;0.65;;;;;;;4.80;59.45;99415.47;5285595;27;20056;-87
2023/01/31 02:05:07;;;;;;;2.53;0.85;;;;;;;4.79;59.45;99411.19;5285407;27;20060;-86
2023/01/31 02:07:35;;;;;;;4.65;1.10;;;;;;;4.72;59.43;99406.97;5285644;27;20061;-87
2023/01/31 02:10:11;;;;;;;1.92;0.80;;;;;;;4.82;59.45;99421.47;5267578;27;20115;-86
2023/01/31 02:12:36;;;;;;;3.55;0.65;;;;;;;4.85;59.44;99427.44;5268308;27;20083;-85
2023/01/31 02:15:02;;;;;;;1.50;1.00;;;;;;;4.69;59.44;99417.34;5267828;27;20143;-86
2023/01/31 02:17:28;;;;;;;2.25;1.00;;;;;;;4.69;59.44;99428.50;5267785;27;20072;-87
2023/01/31 02:20:03;;;;;;;1.62;0.50;;;;;;;4.80;59.45;99425.78;5267515;27;20064;-87
2023/01/31 02:22:50;;;;;;;2.33;0.88;;;;;;;4.74;59.44;99449.94;5303911;27;20061;-87
2023/01/31 02:25:24;;;;;;;3.15;1.15;;;;;;;4.75;59.44;99438.75;5304044;27;20069;-87
2023/01/31 02:28:10;;;;;;;3.87;1.10;;;;;;;4.73;59.44;99447.34;5303662;27;20080;-86
2023/01/31 02:30:44;;;;;;;5.00;0.62;;;;;;;4.82;59.45;99447.25;5285595;27;20095;-86
2023/01/31 02:33:15;;;;;;;4.07;0.77;;;;;;;4.76;59.45;99465.38;5303948;27;20678;-86
2023/01/31 02:36:18;;;;;;;3.12;0.90;;;;;;;4.83;59.45;99454.09;5285985;27;20048;-87
2023/01/31 02:39:27;;;;;;;2.30;0.85;;;;;;;4.89;59.45;99454.88;5323989;27;20409;-86
2023/01/31 02:42:01;;;;;;;5.18;0.77;;;;;;;4.79;59.45;99471.34;5194992;27;20066;-86
2023/01/31 02:47:37;;;;;;;2.97;0.65;;;;;;;5.02;59.46;99480.50;5279815;27;20098;-87
2023/01/31 02:50:14;;;;;;;1.55;0.68;;;;;;;5.12;59.46;99482.06;5303703;27;20111;-87
2023/01/31 02:52:48;;;;;;;3.25;0.80;;;;;;;5.16;59.47;99484.59;5303706;27;20068;-87
2023/01/31 02:58:24;;;;;;;4.22;0.80;;;;;;;5.39;59.48;99498.87;5292201;27;20067;-87
2023/01/31 03:00:50;;;;;;;2.75;0.90;;;;;;;5.29;59.47;99499.91;5268017;27;20075;-87
2023/01/31 03:03:21;;;;;;;1.33;0.73;;;;;;;5.43;59.48;99495.38;5286074;27;20061;-87
2023/01/31 03:06:07;;;;;;;2.40;0.65;;;;;;;5.36;59.47;99501.50;5268235;27;20772;-88
2023/01/31 03:08:32;;;;;;;2.17;0.50;;;;;;;5.25;59.48;99504.25;5286247;27;20036;-88
2023/01/31 03:11:00;;;;;;;5.93;0.85;;;;;;;5.32;59.48;99499.84;5267482;27;20124;-87
2023/01/31 03:13:38;;;;;;;2.30;0.77;;;;;;;5.22;59.46;99505.16;5267916;27;20482;-88
2023/01/31 03:19:19;;;;;;;4.45;0.60;;;;;;;5.15;59.46;99520.72;5294729;27;20421;-88
2023/01/31 03:21:54;;;;;;;4.68;0.70;;;;;;;5.18;59.47;99521.53;5285548;27;20080;-87
2023/01/31 03:24:25;;;;;;;5.35;0.90;;;;;;;5.17;59.47;99517.25;5268110;27;20064;-88
2023/01/31 03:26:53;;;;;;;2.42;0.50;;;;;;;4.96;59.45;99525.25;5268857;27;20064;-88
2023/01/31 03:29:21;;;;;;;7.57;1.08;;;;;;;4.94;59.46;99516.69;5267823;27;20057;-87
2023/01/31 03:31:59;;;;;;;4.12;1.05;;;;;;;5.01;59.47;99515.78;5267536;27;20065;-86
2023/01/31 03:34:25;;;;;;;1.12;0.50;;;;;;;4.89;59.45;99508.19;5267987;27;20067;-87
2023/01/31 03:36:50;;;;;;;3.62;0.82;;;;;;;4.76;59.45;99529.84;5267432;27;20060;-88
2023/01/31 03:39:24;;;;;;;2.97;0.60;;;;;;;4.80;59.45;99522.06;5303789;27;20065;-88
2023/01/31 03:42:24;;;;;;;3.05;0.80;;;;;;;4.89;59.45;99521.94;5303623;27;20065;-87
2023/01/31 03:45:11;;;;;;;3.83;0.80;;;;;;;4.82;59.45;99528.03;5245871;27;20079;-86
2023/01/31 03:47:37;;;;;;;3.28;0.77;;;;;;;4.71;59.44;99529.88;5304107;27;20642;-87
2023/01/31 03:50:23;;;;;;;2.72;0.80;;;;;;;4.80;59.45;99531.50;5285328;27;20040;-88
2023/01/31 03:52:55;;;;;;;2.20;0.88;;;;;;;4.72;59.44;99541.91;5302537;27;20068;-88
2023/01/31 03:55:25;;;;;;;2.33;0.80;;;;;;;4.83;59.44;99526.31;5267487;27;20060;-88
2023/01/31 03:57:51;;;;;;;5.93;0.95;;;;;;;4.78;59.44;99531.53;5267550;27;20065;-88
2023/01/31 04:00:18;;;;;;;2.33;0.90;;;;;;;4.72;59.44;99539.31;5267223;27;20697;-87
2023/01/31 04:02:43;;;;;;;3.70;0.85;;;;;;;4.70;59.43;99535.91;5267847;27;20064;-88
2023/01/31 04:05:14;;;;;;;0.80;0.55;;;;;;;4.83;59.44;99541.78;5266803;27;20078;-86
2023/01/31 04:07:39;;;;;;;5.30;0.80;;;;;;;4.86;59.44;99560.66;5267270;27;20784;-86
2023/01/31 04:10:08;;;;;;;2.28;0.60;;;;;;;4.80;59.45;99558.16;5267283;27;20048;-87
2023/01/31 04:12:34;;;;;;;2.50;1.12;;;;;;;4.71;59.43;99560.81;5267378;27;20024;-86
2023/01/31 04:15:00;;;;;;;2.92;0.90;;;;;;;4.62;59.43;99560.94;5267425;27;20118;-84
2023/01/31 04:17:25;;;;;;;5.65;1.10;;;;;;;4.61;59.43;99572.97;5284757;27;20069;-87
2023/01/31 04:19:51;;;;;;;1.00;0.47;;;;;;;4.75;59.44;99566.81;5284860;27;20123;-86
2023/01/31 04:22:16;;;;;;;5.70;0.80;;;;;;;4.57;59.44;99560.13;5266990;27;20111;-86
2023/01/31 04:24:41;;;;;;;0.93;0.60;;;;;;;4.60;59.43;99567.84;5266835;27;20391;-86
2023/01/31 04:27:07;;;;;;;2.37;0.98;;;;;;;4.58;59.43;99572.16;5285442;27;20355;-87
2023/01/31 04:29:32;;;;;;;2.80;1.30;;;;;;;4.39;59.42;99553.44;5267674;27;20473;-87
2023/01/31 04:31:58;;;;;;;1.48;0.73;;;;;;;4.41;59.42;99576.63;5267718;27;20416;-87
2023/01/31 04:34:23;;;;;;;3.92;0.70;;;;;;;4.47;59.43;99592.88;5268063;27;20443;-86
2023/01/31 04:36:49;;;;;;;2.85;0.90;;;;;;;4.56;59.43;99581.63;5268065;27;20116;-86
2023/01/31 04:39:15;;;;;;;1.50;0.60;;;;;;;4.57;59.43;99589.34;5267966;27;20067;-87
2023/01/31 04:41:40;;;;;;;1.40;0.60;;;;;;;4.55;59.43;99597.97;5267841;27;20084;-86
2023/01/31 04:44:06;;;;;;;3.10;0.80;;;;;;;4.54;59.43;99599.69;5268185;27;20086;-86
2023/01/31 04:46:31;;;;;;;3.10;0.65;;;;;;;4.59;59.43;99599.63;5268275;27;20655;-86
2023/01/31 04:48:56;;;;;;;2.87;0.70;;;;;;;4.55;59.43;99601.41;5286229;27;20340;-87
2023/01/31 04:51:22;;;;;;;5.22;0.70;;;;;;;4.68;59.44;99624.47;5268194;27;20472;-85
2023/01/31 04:53:47;;;;;;;2.92;0.57;;;;;;;4.56;59.43;99622.88;5268067;27;20364;-87
2023/01/31 04:56:13;;;;;;;2.40;0.30;;;;;;;4.50;59.43;99621.22;5268054;27;20426;-85
2023/01/31 04:58:40;;;;;;;3.35;0.50;;;;;;;4.43;59.43;99619.53;5267972;27;20056;-87
2023/01/31 05:01:06;;;;;;;3.08;0.57;;;;;;;4.22;59.41;99615.44;5267905;27;20715;-85
2023/01/31 05:03:31;;;;;;;1.80;0.60;;;;;;;4.33;59.42;99605.03;5267656;27;20064;-86
2023/01/31 05:05:56;;;;;;;1.12;0.50;;;;;;;4.31;59.42;99607.63;5285795;27;20077;-85
2023/01/31 05:08:22;;;;;;;2.33;0.50;;;;;;;4.18;59.41;99606.03;5267512;27;20156;-86
2023/01/31 05:10:48;;;;;;;2.83;0.90;;;;;;;4.15;59.41;99610.34;5285436;27;20082;-86
2023/01/31 05:13:13;;;;;;;2.70;0.70;;;;;;;4.10;59.41;99612.97;5266735;27;20116;-85
2023/01/31 05:15:39;;;;;;;4.07;0.80;;;;;;;4.18;59.41;99611.19;5267617;27;20371;-86
2023/01/31 05:18:04;;;;;;;2.25;0.80;;;;;;;4.03;59.40;99618.19;5267956;27;20322;-86
2023/01/31 05:20:31;;;;;;;3.85;0.93;;;;;;;4.12;59.40;99610.38;5304484;27;20107;-86
2023/01/31 05:22:57;;;;;;;6.25;1.20;;;;;;;4.15;59.41;99623.22;5267815;27;20091;-87
2023/01/31 05:25:23;;;;;;;7.35;2.60;;;;;;;4.05;59.41;99630.19;5285733;27;20445;-84
2023/01/31 05:27:49;;;;;;;5.22;1.45;;;;;;;4.17;59.41;99624.91;5268108;27;20075;-87
2023/01/31 05:30:14;;;;;;;2.75;1.10;;;;;;;4.08;59.41;99634.47;5268123;27;20108;-86
2023/01/31 05:32:40;;;;;;;7.60;1.90;;;;;;;4.03;59.40;99620.75;5267571;27;20060;-86
2023/01/31 05:35:06;;;;;;;6.47;1.50;;;;;;;3.91;59.40;99639.72;5268133;27;20096;-86
2023/01/31 05:37:31;;;;;;;3.95;0.85;;;;;;;3.87;59.39;99626.00;5285925;27;20049;-87
2023/01/31 05:39:56;;;;;;;1.87;0.47;;;;;;;4.05;59.41;99630.19;5267095;27;20068;-86
2023/01/31 05:42:22;;;;;;;5.80;0.95;;;;;;;3.96;59.40;99625.94;5286275;27;20142;-85
2023/01/31 05:44:47;;;;;;;3.35;0.55;;;;;;;3.96;59.39;99641.38;5285837;27;20382;-86
2023/01/31 05:47:13;;;;;;;5.55;1.20;;;;;;;3.99;59.40;99640.50;5285934;27;20445;-87
2023/01/31 05:49:38;;;;;;;6.57;1.17;;;;;;;3.95;59.40;99633.69;5267116;27;20125;-86
2023/01/31 05:52:04;;;;;;;5.80;1.30;;;;;;;4.00;59.40;99650.78;5304023;27;20102;-86
2023/01/31 05:54:29;;;;;;;3.40;1.30;;;;;;;4.14;59.41;99657.59;5286154;27;20634;-86
2023/01/31 05:56:54;;;;;;;4.07;1.08;;;;;;;4.27;59.42;99652.34;5285848;27;20437;-87
2023/01/31 05:59:20;;;;;;;5.07;1.00;;;;;;;4.23;59.42;99660.06;5285954;27;20124;-87
2023/01/31 06:01:46;;;;;;;5.10;1.45;;;;;;;4.38;59.42;99649.66;5323688;27;20419;-86
2023/01/31 06:04:11;;;;;;;6.43;1.90;;;;;;;4.44;59.43;99648.75;5285697;27;20052;-86
2023/01/31 06:06:37;;;;;;;3.60;1.10;;;;;;;4.45;59.42;99661.62;5285819;27;20064;-87
2023/01/31 06:09:02;;;;;;;3.97;0.98;;;;;;;4.47;59.43;99657.28;5285593;27;20139;-86
2023/01/31 06:11:27;;;;;;;4.15;1.40;;;;;;;4.48;59.43;99655.56;5267366;27;20065;-86
2023/01/31 06:13:56;;;;;;;4.15;0.77;;;;;;;4.56;59.43;99654.66;5285287;27;20048;-86
2023/01/31 06:16:22;;;;;;;5.07;1.00;;;;;;;4.59;59.44;99664.09;5286384;27;20433;-86
2023/01/31 06:18:47;;;;;;;5.87;1.10;;;;;;;4.42;59.42;99663.38;5267454;27;20109;-86
2023/01/31 06:21:15;;;;;;;6.97;0.77;;;;;;;4.52;59.43;99660.72;5323629;27;20099;-86
2023/01/31 06:23:44;;;;;;;3.80;0.50;;;;;;;4.52;59.43;99677.91;5285671;27;20052;-86
2023/01/31 06:26:10;;;;;;;6.28;1.00;;;;;;;4.53;59.43;99679.63;5268563;27;20627;-85
2023/01/31 06:28:36;;;;;;;4.12;0.52;;;;;;;4.54;59.43;99681.31;5303845;27;20067;-85
2023/01/31 06:31:09;;;;;;;4.75;0.73;;;;;;;4.36;59.42;99697.78;5285513;27;20060;-86
2023/01/31 06:33:34;;;;;;;0.82;0.28;;;;;;;4.55;59.43;99708.81;5286288;27;20066;-86
2023/01/31 06:36:00;;;;;;;5.12;1.20;;;;;;;4.37;59.43;99706.38;5267211;27;20060;-85
2023/01/31 06:38:26;;;;;;;2.08;0.55;;;;;;;4.40;59.42;99704.63;5285202;27;20057;-86
2023/01/31 06:40:51;;;;;;;6.43;0.85;;;;;;;4.42;59.43;99715.75;5303587;27;20064;-86
2023/01/31 06:43:17;;;;;;;5.22;1.00;;;;;;;4.48;59.42;99713.13;5285150;27;20083;-86
2023/01/31 06:45:45;;;;;;;2.72;0.60;;;;;;;4.70;59.44;99712.94;5285370;27;20360;-86
2023/01/31 06:48:11;;;;;;;1.67;0.57;;;;;;;4.79;59.45;99715.47;5267702;27;20064;-86
2023/01/31 06:50:36;;;;;;;3.20;0.50;;;;;;;4.86;59.44;99723.12;5266482;27;20088;-86
2023/01/31 06:53:01;;;;;;;3.37;0.80;;;;;;;4.87;59.45;99721.41;5284809;27;20091;-86
2023/01/31 06:55:27;;;;;;;5.68;0.62;;;;;;;4.75;59.44;99729.25;5302785;27;20092;-86
2023/01/31 06:57:54;;;;;;;4.03;0.70;;;;;;;4.75;59.44;99739.56;5303067;27;20060;-86
2023/01/31 07:00:20;;;;;;;4.20;0.70;;;;;;;4.59;59.43;99744.00;5285454;27;20078;-85
2023/01/31 07:02:46;;;;;;;4.12;0.90;;;;;;;4.82;59.45;99748.97;5284994;27;20120;-86
2023/01/31 07:05:11;;;;;;;8.00;0.70;;;;;;;4.96;59.45;99734.19;5267166;27;20068;-85
2023/01/31 07:07:36;;;;;;;3.40;0.80;;;;;;;5.01;59.46;99745.34;5266078;27;20116;-86
2023/01/31 07:10:02;;;;;;;2.95;0.70;;;;;;;5.10;59.46;99750.41;5266179;27;20096;-86
2023/01/31 07:12:28;;;;;;;3.47;0.70;;;;;;;5.01;59.45;99749.66;5266798;27;20064;-86
2023/01/31 07:14:53;;;;;;;4.30;0.80;;;;;;;5.05;59.46;99753.91;5266449;27;20105;-86
2023/01/31 07:17:21;;;;;;;5.87;0.88;;;;;;;5.09;59.46;99759.03;5266719;27;20111;-85
2023/01/31 07:19:47;;;;;;;1.42;0.40;;;;;;;4.97;59.45;99758.25;5285115;27;20078;-87
2023/01/31 07:22:12;;;;;;;2.87;1.00;;;;;;;5.01;59.45;99765.13;5266485;27;20104;-87
2023/01/31 07:24:38;;;;;;;1.55;0.68;;;;;;;5.02;59.46;99756.53;5266589;27;20115;-86
2023/01/31 07:27:03;;;;;;;1.40;0.47;;;;;;;5.17;59.47;99764.94;5266452;27;20073;-86
2023/01/31 07:29:29;;;;;;;4.97;0.45;;;;;;;5.18;59.47;99764.06;5266488;27;20389;-86
2023/01/31 07:31:54;;;;;;;3.22;0.77;;;;;;;5.15;59.46;99771.00;5322459;27;20425;-86
2023/01/31 07:34:21;;;;;;;3.95;0.70;;;;;;;5.23;59.46;99776.97;5284614;27;20065;-86
2023/01/31 07:36:48;;;;;;;2.10;0.50;;;;;;;5.15;59.46;99777.00;5285162;27;20071;-87
2023/01/31 07:39:13;;;;;;;5.62;0.80;;;;;;;5.10;59.47;99773.63;5266441;27;20067;-86
2023/01/31 07:41:39;;;;;;;3.00;0.77;;;;;;;5.29;59.46;99774.31;5302698;27;20093;-86
2023/01/31 07:44:07;;;;;;;2.12;0.60;;;;;;;5.18;59.47;99776.12;5266062;27;20108;-86
2023/01/31 07:46:35;;;;;;;3.65;0.47;;;;;;;5.43;59.48;99784.47;5302922;27;20064;-86
2023/01/31 07:49:01;;;;;;;1.48;0.47;;;;;;;5.42;59.48;99778.44;5266413;26;20079;-86
2023/01/31 07:51:26;;;;;;;5.47;0.57;;;;;;;5.34;59.47;99788.00;5265969;27;20082;-86
2023/01/31 07:53:51;;;;;;;2.62;0.50;;;;;;;5.43;59.48;99785.31;5266177;27;20112;-86
2023/01/31 07:56:19;;;;;;;3.65;0.68;;;;;;;5.42;59.47;99785.34;5283562;27;20116;-86
2023/01/31 07:58:44;;;;;;;3.58;0.73;;;;;;;5.54;59.49;99792.97;5266467;27;20068;-86
2023/01/31 08:03:58;;;;;;;6.85;0.77;;;;;;;5.67;59.49;99799.69;5291323;27;20162;-86
2023/01/31 08:06:24;;;;;;;3.08;1.52;;;;;;;5.50;59.48;99806.78;5303159;27;20084;-86
2023/01/31 08:08:49;;;;;;;1.87;1.08;;;;;;;5.44;59.48;99810.28;5303784;27;20236;-86
2023/01/31 08:11:15;;;;;;;3.33;0.93;;;;;;;5.58;59.49;99810.13;5267187;27;20053;-87
2023/01/31 08:13:40;;;;;;;5.45;0.93;;;;;;;5.66;59.49;99810.03;5285146;27;20104;-87
2023/01/31 08:16:08;;;;;;;3.33;0.55;;;;;;;5.78;59.51;99813.34;5267413;27;20079;-86
2023/01/31 08:18:33;;;;;;;1.98;0.70;;;;;;;5.80;59.50;99811.59;5266946;27;20029;-86
2023/01/31 08:20:58;;;;;;;1.90;0.73;;;;;;;5.86;59.50;99818.41;5267002;27;20100;-86
2023/01/31 08:23:25;;;;;;;2.50;0.95;;;;;;;5.80;59.50;99821.94;5285099;27;20377;-86
2023/01/31 08:25:50;;;;;;;4.75;0.70;;;;;;;5.86;59.50;99821.84;5267473;27;20060;-86
2023/01/31 08:28:16;;;;;;;3.15;0.60;;;;;;;5.98;59.52;99833.81;5267258;27;20314;-86
2023/01/31 08:30:41;;;;;;;5.93;0.80;;;;;;;6.09;59.52;99850.03;5267038;27;20112;-85
2023/01/31 08:33:08;;;;;;;2.17;0.82;;;;;;;5.97;59.51;99854.50;5285257;27;20391;-86
2023/01/31 08:35:33;;;;;;;3.10;0.50;;;;;;;5.94;59.51;99859.72;5267507;27;20098;-87
2023/01/31 08:37:58;;;;;;;5.68;0.93;;;;;;;5.94;59.51;99865.75;5267118;27;20378;-86
2023/01/31 08:40:24;;;;;;;3.17;0.95;;;;;;;5.79;59.50;99874.47;5303397;27;20092;-86
2023/01/31 08:42:56;;;;;;;6.10;1.17;;;;;;;6.00;59.52;99880.31;5266836;27;20148;-86
2023/01/31 08:45:22;;;;;;;4.72;0.82;;;;;;;6.12;59.51;99869.81;5267001;27;20033;-86
2023/01/31 08:47:48;;;;;;;1.70;0.73;;;;;;;6.20;59.52;99890.41;5267209;27;20103;-86
2023/01/31 08:50:13;;;;;;;6.25;1.10;;;;;;;6.30;59.53;99889.41;5285040;27;20100;-86
2023/01/31 08:52:38;;;;;;;6.95;1.05;;;;;;;6.38;59.54;99896.19;5266491;27;20350;-86
2023/01/31 08:55:05;;;;;;;2.05;0.70;;;;;;;6.69;59.55;99900.97;5284720;27;20083;-86
2023/01/31 08:57:30;;;;;;;4.72;1.05;;;;;;;6.84;59.56;99903.34;5267043;27;20075;-86
2023/01/31 08:59:56;;;;;;;7.25;0.88;;;;;;;6.92;59.56;99905.84;5266565;27;20100;-86
2023/01/31 09:02:21;;;;;;;4.37;0.70;;;;;;;6.98;59.57;99905.72;5284625;27;20073;-86
2023/01/31 09:04:48;;;;;;;6.25;1.45;;;;;;;6.91;59.57;99906.72;5266434;27;20079;-87
2023/01/31 09:07:13;;;;;;;6.90;1.10;;;;;;;7.16;59.58;99902.87;5285344;27;20425;-86
2023/01/31 09:09:39;;;;;;;4.60;0.95;;;;;;;7.23;59.58;99913.97;5266978;27;20135;-86
2023/01/31 09:12:04;;;;;;;4.47;0.60;;;;;;;6.90;59.56;99916.22;5303216;27;20104;-86
2023/01/31 09:14:30;;;;;;;1.75;0.55;;;;;;;6.96;59.57;99913.53;5284968;27;20071;-86
2023/01/31 09:16:56;;;;;;;3.70;0.62;;;;;;;7.05;59.57;99915.09;5285125;27;20326;-86
2023/01/31 09:19:22;;;;;;;2.50;0.80;;;;;;;7.16;59.57;99926.16;5266952;27;20104;-86
2023/01/31 09:21:48;;;;;;;3.83;0.68;;;;;;;7.27;59.58;99908.72;5266868;27;20114;-86
2023/01/31 09:24:13;;;;;;;5.00;0.65;;;;;;;7.04;59.57;99909.06;5285208;27;20065;-88
2023/01/31 09:26:38;;;;;;;4.12;0.82;;;;;;;6.91;59.56;99907.56;5267052;27;20053;-87
2023/01/31 09:29:04;;;;;;;5.45;0.85;;;;;;;6.90;59.56;99921.38;5285068;27;20053;-86
2023/01/31 09:31:30;;;;;;;5.95;0.62;;;;;;;6.85;59.56;99915.41;5285290;27;20056;-87
2023/01/31 09:33:55;;;;;;;5.07;1.15;;;;;;;6.64;59.54;99923.47;5267167;27;20061;-87
2023/01/31 09:36:23;;;;;;;4.70;0.60;;;;;;;6.49;59.53;99919.34;5267237;27;20118;-86
2023/01/31 09:38:52;;;;;;;3.65;0.62;;;;;;;6.37;59.53;99924.66;5267409;27;20498;-87
2023/01/31 09:41:22;;;;;;;4.13;1.10;;;;;;;6.44;59.54;99918.56;5285327;27;20418;-86
2023/01/31 09:43:49;;;;;;;;;;;;;;;6.52;59.54;99923.63;5285817;27;20118;-86
2023/01/31 09:46:16;;;;;;;2.37;0.60;;;;;;;6.52;59.54;99918.44;5285356;27;19968;-87
2023/01/31 09:48:43;;;;;;;2.35;1.87;;;;;;;6.67;59.55;99931.19;5267312;27;20112;-86
2023/01/31 09:51:09;;;;;;;4.60;1.00;;;;;;;6.83;59.56;99919.75;5280622;27;20065;-86
2023/01/31 09:53:36;;;;;;;1.00;0.50;;;;;;;7.11;59.58;99927.13;5245347;27;20424;-86
2023/01/31 09:56:26;;;;;;;3.33;0.70;;;;;;;6.84;59.56;99920.59;5263534;27;20123;-86
2023/01/31 09:59:00;;;;;;;3.20;1.00;;;;;;;6.79;59.55;99915.50;5281369;27;20053;-86
2023/01/31 10:01:42;;;;;;;3.70;1.02;;;;;;;7.06;59.57;99922.84;5281192;27;20063;-86
2023/01/31 10:04:17;;;;;;;2.30;0.80;;;;;;;7.06;59.57;99915.09;5265650;27;20072;-86
2023/01/31 10:06:51;;;;;;;3.47;1.17;;;;;;;6.99;59.57;99916.06;5281402;27;20096;-87
2023/01/31 10:09:26;;;;;;;1.42;0.65;;;;;;;6.95;59.57;99904.06;5245767;27;20063;-87
2023/01/31 10:11:55;;;;;;;4.20;1.17;;;;;;;7.04;59.57;99913.41;5263794;27;20056;-86
2023/01/31 10:14:30;;;;;;;7.00;0.60;;;;;;;6.84;59.56;99907.66;5245620;27;20113;-87
2023/01/31 10:17:20;;;;;;;6.07;1.30;;;;;;;6.77;59.55;99910.34;5281197;27;20784;-86
2023/01/31 10:19:53;;;;;;;13.00;3.45;;;;;;;6.65;59.54;99905.34;5281020;27;20025;-86
2023/01/31 10:22:27;;;;;;;1.98;0.88;;;;;;;6.89;59.56;99921.41;5281344;27;20150;-87
2023/01/31 10:25:15;;;;;;;1.87;0.50;;;;;;;6.92;59.56;99909.28;5245058;27;20315;-86
2023/01/31 10:28:08;;;;;;;3.22;0.80;;;;;;;6.80;59.56;99919.78;5257451;27;20104;-87
2023/01/31 10:30:49;;;;;;;5.40;0.70;;;;;;;7.01;59.56;99910.88;5263126;27;20053;-86
2023/01/31 10:33:27;;;;;;;4.22;0.70;;;;;;;7.13;59.57;99902.91;5245914;27;20056;-86
2023/01/31 10:35:53;;;;;;;3.62;0.80;;;;;;;6.89;59.56;99896.38;5281535;27;20064;-87
2023/01/31 10:38:29;;;;;;;6.40;0.88;;;;;;;6.72;59.56;99886.28;5245175;27;20371;-87
2023/01/31 10:41:12;;;;;;;1.90;0.57;;;;;;;6.95;59.57;99890.25;5263610;27;20056;-87
2023/01/31 10:43:42;;;;;;;3.12;0.60;;;;;;;7.09;59.57;99885.69;5246527;27;20033;-87
2023/01/31 10:46:11;;;;;;;;;;;;;;;6.98;59.57;99891.06;5263821;27;20069;-87
2023/01/31 10:48:37;;;;;;;2.28;0.40;;;;;;;7.06;59.57;99898.69;5281266;27;19972;-86
2023/01/31 10:51:02;;;;;;;6.43;0.68;;;;;;;7.00;59.57;99885.84;5265093;27;20127;-87
2023/01/31 10:53:43;;;;;;;3.97;1.17;;;;;;;7.11;59.58;99896.06;5322692;27;20067;-86
2023/01/31 10:56:34;;;;;;;4.55;0.60;;;;;;;6.91;59.57;99898.94;5285913;27;20064;-86
2023/01/31 10:59:01;;;;;;;2.80;0.82;;;;;;;7.07;59.57;99879.69;5286052;27;20820;-86
2023/01/31 11:01:26;;;;;;;3.00;0.52;;;;;;;7.21;59.58;99890.69;5285360;27;20484;-87
2023/01/31 11:03:53;;;;;;;3.17;1.08;;;;;;;6.99;59.57;99897.09;5284925;27;20195;-86
2023/01/31 11:06:18;;;;;;;1.87;0.32;;;;;;;6.88;59.56;99892.09;5266853;27;20130;-86
2023/01/31 11:08:48;;;;;;;1.12;0.60;;;;;;;6.91;59.57;99889.44;5266393;27;20065;-86
2023/01/31 11:11:15;;;;;;;2.60;0.73;;;;;;;6.82;59.56;99878.37;5284225;27;20787;-87
2023/01/31 11:13:53;;;;;;;4.15;0.65;;;;;;;7.09;59.58;99891.72;5267044;27;20435;-87
2023/01/31 11:16:19;;;;;;;1.62;0.47;;;;;;;7.33;59.59;99879.28;5286456;27;20065;-87
2023/01/31 11:18:46;;;;;;;0.98;0.47;;;;;;;7.71;59.61;99878.63;5266191;27;20111;-86
2023/01/31 11:21:19;;;;;;;2.53;0.80;;;;;;;7.62;59.61;99883.97;5266499;27;20071;-88
2023/01/31 11:23:44;;;;;;;2.35;0.70;;;;;;;7.37;59.59;99883.53;5266447;27;20076;-86
2023/01/31 11:26:09;;;;;;;3.25;1.55;;;;;;;7.61;59.61;99883.12;5265988;27;20353;-86
2023/01/31 11:28:36;;;;;;;1.92;0.43;;;;;;;7.70;59.61;99887.28;5284405;27;20112;-86
2023/01/31 11:31:03;;;;;;;1.75;0.55;;;;;;;7.41;59.59;99898.16;5284887;27;20067;-87
2023/01/31 11:33:54;;;;;;;3.55;0.65;;;;;;;7.58;59.60;99892.69;5266464;27;20428;-86
2023/01/31 11:36:25;;;;;;;2.20;0.65;;;;;;;7.72;59.61;99869.09;5268027;27;20064;-86
2023/01/31 11:38:51;;;;;;;4.32;0.50;;;;;;;7.92;59.62;99864.41;5268805;27;20079;-86
2023/01/31 11:41:33;;;;;;;3.58;1.20;;;;;;;7.44;59.59;99879.97;5267597;27;20060;-86
2023/01/31 11:44:13;;;;;;;2.67;0.80;;;;;;;7.51;59.60;99876.38;5286677;27;20065;-86
2023/01/31 11:47:17;;;;;;;1.60;0.50;;;;;;;7.63;59.61;99875.31;5267250;27;20662;-87
2023/01/31 11:49:42;;;;;;;2.97;0.60;;;;;;;7.92;59.62;99874.78;5194420;27;20089;-86
2023/01/31 11:52:15;;;;;;;4.60;0.70;;;;;;;8.00;59.63;99863.37;5194580;27;20439;-87
2023/01/31 11:54:44;;;;;;;4.72;0.70;;;;;;;8.17;59.63;99862.19;5238946;27;20469;-87
2023/01/31 11:57:19;;;;;;;1.35;0.40;;;;;;;8.28;59.64;99860.22;5263435;27;20080;-86
2023/01/31 11:59:44;;;;;;;1.67;0.98;;;;;;;8.29;59.63;99851.56;5281095;27;20079;-87
2023/01/31 12:02:31;;;;;;;4.62;0.50;;;;;;;7.99;59.63;99866.00;5263160;27;20073;-88